sensor_id;sensor_type;location;lat;lon;timestamp;temperature;humidity
10314;DHT22;5202;49.138;10.090;2024-02-16T00:00:25;8.40;99.90
10314;DHT22;5202;49.138;10.090;2024-02-16T00:02:53;8.40;99.90
10314;DHT22;5202;49.138;10.090;2024-02-16T00:05:21;8.40;99.90
10314;DHT22;5202;49.138;10.090;2024-02-16T00:07:51;8.40;99.90
10314;DHT22;5202;49.138;10.090;2024-02-16T00:10:20;8.50;99.90
10314;DHT22;5202;49.138;10.090;2024-02-16T00:12:48;8.40;99.90
10314;DHT22;5202;49.138;10.090;2024-02-16T00:15:17;8.50;99.90
10314;DHT22;5202;49.138;10.090;2024-02-16T00:17:45;8.60;99.90
10314;DHT22;5202;49.138;10.090;2024-02-16T00:20:14;8.60;99.90
10314;DHT22;5202;49.138;10.090;2024-02-16T00:22:43;8.70;99.90
10314;DHT22;5202;49.138;10.090;2024-02-16T00:25:12;8.70;99.90
10314;DHT22;5202;49.138;10.090;2024-02-16T00:27:42;8.70;99.90
10314;DHT22;5202;49.138;10.090;2024-02-16T00:30:11;8.70;99.90
10314;DHT22;5202;49.138;10.090;2024-02-16T00:32:42;8.70;99.90
10314;DHT22;5202;49.138;10.090;2024-02-16T00:35:12;8.80;99.90
10314;DHT22;5202;49.138;10.090;2024-02-16T00:37:43;8.80;99.90
10314;DHT22;5202;49.138;10.090;2024-02-16T00:40:14;8.80;99.90
10314;DHT22;5202;49.138;10.090;2024-02-16T00:42:42;8.80;99.90
10314;DHT22;5202;49.138;10.090;2024-02-16T00:45:10;8.80;99.90
10314;DHT22;5202;49.138;10.090;2024-02-16T00:47:39;8.80;99.90
10314;DHT22;5202;49.138;10.090;2024-02-16T00:50:09;8.70;99.90
10314;DHT22;5202;49.138;10.090;2024-02-16T00:52:37;8.70;99.90
10314;DHT22;5202;49.138;10.090;2024-02-16T00:55:07;8.70;99.90
10314;DHT22;5202;49.138;10.090;2024-02-16T00:57:38;8.70;99.90
10314;DHT22;5202;49.138;10.090;2024-02-16T01:00:07;8.70;99.90
10314;DHT22;5202;49.138;10.090;2024-02-16T01:02:37;8.70;99.90
10314;DHT22;5202;49.138;10.090;2024-02-16T01:05:06;8.60;99.90
10314;DHT22;5202;49.138;10.090;2024-02-16T01:07:42;8.60;99.90
10314;DHT22;5202;49.138;10.090;2024-02-16T01:10:10;8.50;99.90
10314;DHT22;5202;49.138;10.090;2024-02-16T01:12:40;8.50;99.90
10314;DHT22;5202;49.138;10.090;2024-02-16T01:15:09;8.60;99.90
10314;DHT22;5202;49.138;10.090;2024-02-16T01:17:38;8.60;99.90
10314;DHT22;5202;49.138;10.090;2024-02-16T01:20:07;8.60;99.90
10314;DHT22;5202;49.138;10.090;2024-02-16T01:22:39;8.60;99.90
10314;DHT22;5202;49.138;10.090;2024-02-16T01:25:08;8.70;99.90
10314;DHT22;5202;49.138;10.090;2024-02-16T01:27:36;8.70;99.90
10314;DHT22;5202;49.138;10.090;2024-02-16T01:30:10;8.70;99.90
10314;DHT22;5202;49.138;10.090;2024-02-16T01:32:39;8.60;99.90
10314;DHT22;5202;49.138;10.090;2024-02-16T01:35:08;8.60;99.90
10314;DHT22;5202;49.138;10.090;2024-02-16T01:37:37;8.60;99.90
10314;DHT22;5202;49.138;10.090;2024-02-16T01:40:06;8.60;99.90
10314;DHT22;5202;49.138;10.090;2024-02-16T01:42:40;8.60;99.90
10314;DHT22;5202;49.138;10.090;2024-02-16T01:45:11;8.60;99.90
10314;DHT22;5202;49.138;10.090;2024-02-16T01:47:41;8.70;99.90
10314;DHT22;5202;49.138;10.090;2024-02-16T01:50:14;8.70;99.90
10314;DHT22;5202;49.138;10.090;2024-02-16T01:52:44;8.70;99.90
10314;DHT22;5202;49.138;10.090;2024-02-16T01:55:13;8.70;99.90
10314;DHT22;5202;49.138;10.090;2024-02-16T01:57:44;8.70;99.90
10314;DHT22;5202;49.138;10.090;2024-02-16T02:00:15;8.70;99.90
10314;DHT22;5202;49.138;10.090;2024-02-16T02:02:46;8.70;99.90
10314;DHT22;5202;49.138;10.090;2024-02-16T02:05:14;8.70;99.90
10314;DHT22;5202;49.138;10.090;2024-02-16T02:07:43;8.70;99.90
10314;DHT22;5202;49.138;10.090;2024-02-16T02:10:12;8.70;99.90
10314;DHT22;5202;49.138;10.090;2024-02-16T02:12:40;8.60;99.90
10314;DHT22;5202;49.138;10.090;2024-02-16T02:15:10;8.70;99.90
10314;DHT22;5202;49.138;10.090;2024-02-16T02:17:40;8.60;99.90
10314;DHT22;5202;49.138;10.090;2024-02-16T02:20:09;8.70;99.90
10314;DHT22;5202;49.138;10.090;2024-02-16T02:22:40;8.60;99.90
10314;DHT22;5202;49.138;10.090;2024-02-16T02:25:08;8.60;99.90
10314;DHT22;5202;49.138;10.090;2024-02-16T02:27:38;8.40;99.90
10314;DHT22;5202;49.138;10.090;2024-02-16T02:30:07;8.40;99.90
10314;DHT22;5202;49.138;10.090;2024-02-16T02:32:36;8.20;99.90
10314;DHT22;5202;49.138;10.090;2024-02-16T02:35:05;8.20;99.90
10314;DHT22;5202;49.138;10.090;2024-02-16T02:37:36;8.20;99.90
10314;DHT22;5202;49.138;10.090;2024-02-16T02:40:08;8.20;99.90
10314;DHT22;5202;49.138;10.090;2024-02-16T02:42:37;8.20;99.90
10314;DHT22;5202;49.138;10.090;2024-02-16T02:45:06;8.20;99.90
10314;DHT22;5202;49.138;10.090;2024-02-16T02:47:35;8.20;99.90
10314;DHT22;5202;49.138;10.090;2024-02-16T02:50:05;8.30;99.90
10314;DHT22;5202;49.138;10.090;2024-02-16T02:52:35;8.20;99.90
10314;DHT22;5202;49.138;10.090;2024-02-16T02:55:04;8.20;99.90
10314;DHT22;5202;49.138;10.090;2024-02-16T02:57:34;8.20;99.90
10314;DHT22;5202;49.138;10.090;2024-02-16T03:00:08;8.20;99.90
10314;DHT22;5202;49.138;10.090;2024-02-16T03:02:40;8.20;99.90
10314;DHT22;5202;49.138;10.090;2024-02-16T03:05:13;8.20;99.90
10314;DHT22;5202;49.138;10.090;2024-02-16T03:07:43;8.20;99.90
10314;DHT22;5202;49.138;10.090;2024-02-16T03:10:12;8.10;99.90
10314;DHT22;5202;49.138;10.090;2024-02-16T03:12:48;8.10;99.90
10314;DHT22;5202;49.138;10.090;2024-02-16T03:15:17;8.10;99.90
10314;DHT22;5202;49.138;10.090;2024-02-16T03:17:46;8.10;99.90
10314;DHT22;5202;49.138;10.090;2024-02-16T03:20:14;8.10;99.90
10314;DHT22;5202;49.138;10.090;2024-02-16T03:22:43;8.00;99.90
10314;DHT22;5202;49.138;10.090;2024-02-16T03:25:12;8.00;99.90
10314;DHT22;5202;49.138;10.090;2024-02-16T03:27:40;8.00;99.90
10314;DHT22;5202;49.138;10.090;2024-02-16T03:30:11;7.90;99.90
10314;DHT22;5202;49.138;10.090;2024-02-16T03:32:40;7.90;99.90
10314;DHT22;5202;49.138;10.090;2024-02-16T03:35:09;7.90;99.90
10314;DHT22;5202;49.138;10.090;2024-02-16T03:37:37;7.80;99.90
10314;DHT22;5202;49.138;10.090;2024-02-16T03:40:06;7.80;99.90
10314;DHT22;5202;49.138;10.090;2024-02-16T03:42:36;7.90;99.90
10314;DHT22;5202;49.138;10.090;2024-02-16T03:45:06;7.90;99.90
10314;DHT22;5202;49.138;10.090;2024-02-16T03:47:36;7.90;99.90
10314;DHT22;5202;49.138;10.090;2024-02-16T03:50:05;7.90;99.90
10314;DHT22;5202;49.138;10.090;2024-02-16T03:52:34;7.90;99.90
10314;DHT22;5202;49.138;10.090;2024-02-16T03:55:03;7.80;99.90
10314;DHT22;5202;49.138;10.090;2024-02-16T03:57:32;7.90;99.90
10314;DHT22;5202;49.138;10.090;2024-02-16T04:00:01;7.80;99.90
10314;DHT22;5202;49.138;10.090;2024-02-16T04:02:41;7.90;99.90
10314;DHT22;5202;49.138;10.090;2024-02-16T04:05:15;7.80;99.90
10314;DHT22;5202;49.138;10.090;2024-02-16T04:07:44;7.80;99.90
10314;DHT22;5202;49.138;10.090;2024-02-16T04:10:12;7.70;99.90
10314;DHT22;5202;49.138;10.090;2024-02-16T04:12:41;7.60;99.90
10314;DHT22;5202;49.138;10.090;2024-02-16T04:15:09;7.60;99.90
10314;DHT22;5202;49.138;10.090;2024-02-16T04:17:38;7.50;99.90
10314;DHT22;5202;49.138;10.090;2024-02-16T04:20:09;7.50;99.90
10314;DHT22;5202;49.138;10.090;2024-02-16T04:22:38;7.50;99.90
10314;DHT22;5202;49.138;10.090;2024-02-16T04:25:06;7.50;99.90
10314;DHT22;5202;49.138;10.090;2024-02-16T04:27:36;7.50;99.90
10314;DHT22;5202;49.138;10.090;2024-02-16T04:30:06;7.50;99.90
10314;DHT22;5202;49.138;10.090;2024-02-16T04:32:35;7.40;99.90
10314;DHT22;5202;49.138;10.090;2024-02-16T04:35:04;7.40;99.90
10314;DHT22;5202;49.138;10.090;2024-02-16T04:37:34;7.40;99.90
10314;DHT22;5202;49.138;10.090;2024-02-16T04:40:04;7.30;99.90
10314;DHT22;5202;49.138;10.090;2024-02-16T04:42:33;7.40;99.90
10314;DHT22;5202;49.138;10.090;2024-02-16T04:45:02;7.40;99.90
10314;DHT22;5202;49.138;10.090;2024-02-16T04:47:32;7.30;99.90
10314;DHT22;5202;49.138;10.090;2024-02-16T04:50:01;7.30;99.90
10314;DHT22;5202;49.138;10.090;2024-02-16T04:52:30;7.20;99.90
10314;DHT22;5202;49.138;10.090;2024-02-16T04:54:59;7.30;99.90
10314;DHT22;5202;49.138;10.090;2024-02-16T04:57:28;7.40;99.90
10314;DHT22;5202;49.138;10.090;2024-02-16T04:59:56;7.30;99.90
10314;DHT22;5202;49.138;10.090;2024-02-16T05:02:25;7.30;99.90
10314;DHT22;5202;49.138;10.090;2024-02-16T05:05:04;7.30;99.90
10314;DHT22;5202;49.138;10.090;2024-02-16T05:07:32;7.30;99.90
10314;DHT22;5202;49.138;10.090;2024-02-16T05:10:08;7.30;99.90
10314;DHT22;5202;49.138;10.090;2024-02-16T05:12:37;7.30;99.90
10314;DHT22;5202;49.138;10.090;2024-02-16T05:15:06;7.40;99.90
10314;DHT22;5202;49.138;10.090;2024-02-16T05:17:37;7.40;99.90
10314;DHT22;5202;49.138;10.090;2024-02-16T05:20:09;7.30;99.90
10314;DHT22;5202;49.138;10.090;2024-02-16T05:22:43;7.30;99.90
10314;DHT22;5202;49.138;10.090;2024-02-16T05:25:14;7.30;99.90
10314;DHT22;5202;49.138;10.090;2024-02-16T05:27:45;7.30;99.90
10314;DHT22;5202;49.138;10.090;2024-02-16T05:30:14;7.20;99.90
10314;DHT22;5202;49.138;10.090;2024-02-16T05:32:43;7.20;99.90
10314;DHT22;5202;49.138;10.090;2024-02-16T05:35:12;7.10;99.90
10314;DHT22;5202;49.138;10.090;2024-02-16T05:37:43;7.20;99.90
10314;DHT22;5202;49.138;10.090;2024-02-16T05:40:16;7.10;99.90
10314;DHT22;5202;49.138;10.090;2024-02-16T05:42:50;7.10;99.90
10314;DHT22;5202;49.138;10.090;2024-02-16T05:45:19;7.10;99.90
10314;DHT22;5202;49.138;10.090;2024-02-16T05:47:50;7.10;99.90
10314;DHT22;5202;49.138;10.090;2024-02-16T05:50:20;7.30;99.90
10314;DHT22;5202;49.138;10.090;2024-02-16T05:52:50;7.20;99.90
10314;DHT22;5202;49.138;10.090;2024-02-16T05:55:22;7.10;99.90
10314;DHT22;5202;49.138;10.090;2024-02-16T05:57:51;7.00;99.90
10314;DHT22;5202;49.138;10.090;2024-02-16T06:00:20;7.00;99.90
10314;DHT22;5202;49.138;10.090;2024-02-16T06:02:49;7.00;99.90
10314;DHT22;5202;49.138;10.090;2024-02-16T06:05:18;7.00;99.90
10314;DHT22;5202;49.138;10.090;2024-02-16T06:07:48;7.00;99.90
10314;DHT22;5202;49.138;10.090;2024-02-16T06:10:17;7.00;99.90
10314;DHT22;5202;49.138;10.090;2024-02-16T06:12:47;7.10;99.90
10314;DHT22;5202;49.138;10.090;2024-02-16T06:15:15;7.10;99.90
10314;DHT22;5202;49.138;10.090;2024-02-16T06:17:44;7.10;99.90
10314;DHT22;5202;49.138;10.090;2024-02-16T06:20:18;7.20;99.90
10314;DHT22;5202;49.138;10.090;2024-02-16T06:22:47;7.20;99.90
10314;DHT22;5202;49.138;10.090;2024-02-16T06:25:16;7.10;99.90
10314;DHT22;5202;49.138;10.090;2024-02-16T06:27:47;7.10;99.90
10314;DHT22;5202;49.138;10.090;2024-02-16T06:30:15;7.10;99.90
10314;DHT22;5202;49.138;10.090;2024-02-16T06:32:45;7.10;99.90
10314;DHT22;5202;49.138;10.090;2024-02-16T06:35:13;7.00;99.90
10314;DHT22;5202;49.138;10.090;2024-02-16T06:37:42;7.00;99.90
10314;DHT22;5202;49.138;10.090;2024-02-16T06:40:13;7.00;99.90
10314;DHT22;5202;49.138;10.090;2024-02-16T06:42:42;7.00;99.90
10314;DHT22;5202;49.138;10.090;2024-02-16T06:45:12;7.00;99.90
10314;DHT22;5202;49.138;10.090;2024-02-16T06:47:40;7.00;99.90
10314;DHT22;5202;49.138;10.090;2024-02-16T06:50:09;7.00;99.90
10314;DHT22;5202;49.138;10.090;2024-02-16T06:52:38;7.00;99.90
10314;DHT22;5202;49.138;10.090;2024-02-16T06:55:06;7.00;99.90
10314;DHT22;5202;49.138;10.090;2024-02-16T06:57:37;7.10;99.90
10314;DHT22;5202;49.138;10.090;2024-02-16T07:00:07;7.10;99.90
10314;DHT22;5202;49.138;10.090;2024-02-16T07:02:38;7.10;99.90
10314;DHT22;5202;49.138;10.090;2024-02-16T07:05:08;7.10;99.90
10314;DHT22;5202;49.138;10.090;2024-02-16T07:07:42;7.10;99.90
10314;DHT22;5202;49.138;10.090;2024-02-16T07:10:11;7.10;99.90
10314;DHT22;5202;49.138;10.090;2024-02-16T07:12:40;7.20;99.90
10314;DHT22;5202;49.138;10.090;2024-02-16T07:15:09;7.20;99.90
10314;DHT22;5202;49.138;10.090;2024-02-16T07:17:39;7.30;99.90
10314;DHT22;5202;49.138;10.090;2024-02-16T07:20:08;7.30;99.90
10314;DHT22;5202;49.138;10.090;2024-02-16T07:22:37;7.40;99.90
10314;DHT22;5202;49.138;10.090;2024-02-16T07:25:07;7.40;99.90
10314;DHT22;5202;49.138;10.090;2024-02-16T07:27:37;7.40;99.90
10314;DHT22;5202;49.138;10.090;2024-02-16T07:30:06;7.40;99.90
10314;DHT22;5202;49.138;10.090;2024-02-16T07:32:39;7.40;99.90
10314;DHT22;5202;49.138;10.090;2024-02-16T07:35:07;7.40;99.90
10314;DHT22;5202;49.138;10.090;2024-02-16T07:37:37;7.40;99.90
10314;DHT22;5202;49.138;10.090;2024-02-16T07:40:06;7.40;99.90
10314;DHT22;5202;49.138;10.090;2024-02-16T07:42:38;7.50;99.90
10314;DHT22;5202;49.138;10.090;2024-02-16T07:45:09;7.50;99.90
10314;DHT22;5202;49.138;10.090;2024-02-16T07:47:40;7.50;99.90
10314;DHT22;5202;49.138;10.090;2024-02-16T07:50:09;7.60;99.90
10314;DHT22;5202;49.138;10.090;2024-02-16T07:52:38;7.60;99.90
10314;DHT22;5202;49.138;10.090;2024-02-16T07:55:08;7.70;99.90
10314;DHT22;5202;49.138;10.090;2024-02-16T07:57:37;7.70;99.90
10314;DHT22;5202;49.138;10.090;2024-02-16T08:00:06;7.70;99.90
10314;DHT22;5202;49.138;10.090;2024-02-16T08:02:38;7.80;99.90
10314;DHT22;5202;49.138;10.090;2024-02-16T08:05:10;7.90;99.90
10314;DHT22;5202;49.138;10.090;2024-02-16T08:07:39;7.90;99.90
10314;DHT22;5202;49.138;10.090;2024-02-16T08:10:10;8.00;99.90
10314;DHT22;5202;49.138;10.090;2024-02-16T08:12:39;8.10;99.90
10314;DHT22;5202;49.138;10.090;2024-02-16T08:15:09;8.10;99.90
10314;DHT22;5202;49.138;10.090;2024-02-16T08:17:44;8.10;99.90
10314;DHT22;5202;49.138;10.090;2024-02-16T08:20:13;8.10;99.90
10314;DHT22;5202;49.138;10.090;2024-02-16T08:22:42;8.20;99.90
10314;DHT22;5202;49.138;10.090;2024-02-16T08:25:11;8.20;99.90
10314;DHT22;5202;49.138;10.090;2024-02-16T08:27:39;8.30;99.90
10314;DHT22;5202;49.138;10.090;2024-02-16T08:30:09;8.30;99.90
10314;DHT22;5202;49.138;10.090;2024-02-16T08:32:39;8.40;99.90
10314;DHT22;5202;49.138;10.090;2024-02-16T08:35:11;8.50;99.90
10314;DHT22;5202;49.138;10.090;2024-02-16T08:37:41;8.50;99.90
10314;DHT22;5202;49.138;10.090;2024-02-16T08:40:12;8.60;99.90
10314;DHT22;5202;49.138;10.090;2024-02-16T08:42:43;8.70;99.90
10314;DHT22;5202;49.138;10.090;2024-02-16T08:45:14;8.70;99.90
10314;DHT22;5202;49.138;10.090;2024-02-16T08:47:45;8.80;99.90
10314;DHT22;5202;49.138;10.090;2024-02-16T08:50:20;8.80;99.90
10314;DHT22;5202;49.138;10.090;2024-02-16T08:52:48;8.90;99.90
10314;DHT22;5202;49.138;10.090;2024-02-16T08:55:17;8.90;99.90
10314;DHT22;5202;49.138;10.090;2024-02-16T08:57:45;9.00;99.90
10314;DHT22;5202;49.138;10.090;2024-02-16T09:00:14;9.10;99.90
10314;DHT22;5202;49.138;10.090;2024-02-16T09:02:43;9.20;99.90
10314;DHT22;5202;49.138;10.090;2024-02-16T09:05:25;9.20;99.90
10314;DHT22;5202;49.138;10.090;2024-02-16T09:08:04;9.30;99.90
10314;DHT22;5202;49.138;10.090;2024-02-16T09:10:33;9.30;99.90
10314;DHT22;5202;49.138;10.090;2024-02-16T09:13:04;9.40;99.90
10314;DHT22;5202;49.138;10.090;2024-02-16T09:15:33;9.50;99.90
10314;DHT22;5202;49.138;10.090;2024-02-16T09:18:01;9.60;99.90
10314;DHT22;5202;49.138;10.090;2024-02-16T09:20:32;9.60;99.90
10314;DHT22;5202;49.138;10.090;2024-02-16T09:23:00;9.70;99.90
10314;DHT22;5202;49.138;10.090;2024-02-16T09:25:29;9.80;99.90
10314;DHT22;5202;49.138;10.090;2024-02-16T09:27:58;9.90;99.90
10314;DHT22;5202;49.138;10.090;2024-02-16T09:30:26;9.90;99.90
10314;DHT22;5202;49.138;10.090;2024-02-16T09:32:55;10.00;99.90
10314;DHT22;5202;49.138;10.090;2024-02-16T09:35:23;10.10;99.90
10314;DHT22;5202;49.138;10.090;2024-02-16T09:37:53;10.10;99.90
10314;DHT22;5202;49.138;10.090;2024-02-16T09:40:25;10.20;99.90
10314;DHT22;5202;49.138;10.090;2024-02-16T09:42:54;10.20;99.90
10314;DHT22;5202;49.138;10.090;2024-02-16T09:45:22;10.20;99.90
10314;DHT22;5202;49.138;10.090;2024-02-16T09:47:54;10.20;99.90
10314;DHT22;5202;49.138;10.090;2024-02-16T09:50:33;10.30;99.90
10314;DHT22;5202;49.138;10.090;2024-02-16T09:53:04;10.30;99.90
10314;DHT22;5202;49.138;10.090;2024-02-16T09:55:33;10.40;99.90
10314;DHT22;5202;49.138;10.090;2024-02-16T09:58:02;10.40;99.90
10314;DHT22;5202;49.138;10.090;2024-02-16T10:00:32;10.50;99.90
10314;DHT22;5202;49.138;10.090;2024-02-16T10:03:00;10.60;99.90
10314;DHT22;5202;49.138;10.090;2024-02-16T10:05:29;10.60;99.90
10314;DHT22;5202;49.138;10.090;2024-02-16T10:07:58;10.60;99.90
10314;DHT22;5202;49.138;10.090;2024-02-16T10:10:30;10.60;99.90
10314;DHT22;5202;49.138;10.090;2024-02-16T10:13:02;10.70;99.90
10314;DHT22;5202;49.138;10.090;2024-02-16T10:15:31;10.70;99.90
10314;DHT22;5202;49.138;10.090;2024-02-16T10:18:01;10.80;99.90
10314;DHT22;5202;49.138;10.090;2024-02-16T10:20:31;10.80;99.90
10314;DHT22;5202;49.138;10.090;2024-02-16T10:23:05;10.90;99.90
10314;DHT22;5202;49.138;10.090;2024-02-16T10:25:36;10.90;99.90
10314;DHT22;5202;49.138;10.090;2024-02-16T10:28:07;11.00;99.90
10314;DHT22;5202;49.138;10.090;2024-02-16T10:30:38;11.10;99.90
10314;DHT22;5202;49.138;10.090;2024-02-16T10:33:07;11.20;99.90
10314;DHT22;5202;49.138;10.090;2024-02-16T10:35:37;11.30;99.90
10314;DHT22;5202;49.138;10.090;2024-02-16T10:38:07;11.40;99.90
10314;DHT22;5202;49.138;10.090;2024-02-16T10:40:39;11.50;99.90
10314;DHT22;5202;49.138;10.090;2024-02-16T10:43:09;11.50;99.90
10314;DHT22;5202;49.138;10.090;2024-02-16T10:45:38;11.60;99.90
10314;DHT22;5202;49.138;10.090;2024-02-16T10:48:07;11.70;99.90
10314;DHT22;5202;49.138;10.090;2024-02-16T10:50:37;11.70;99.90
10314;DHT22;5202;49.138;10.090;2024-02-16T10:53:11;11.80;99.90
10314;DHT22;5202;49.138;10.090;2024-02-16T10:55:43;11.80;99.90
10314;DHT22;5202;49.138;10.090;2024-02-16T10:58:12;11.90;99.90
10314;DHT22;5202;49.138;10.090;2024-02-16T11:01:07;12.00;99.90
10314;DHT22;5202;49.138;10.090;2024-02-16T11:03:37;12.00;99.90
10314;DHT22;5202;49.138;10.090;2024-02-16T11:06:14;12.10;99.90
10314;DHT22;5202;49.138;10.090;2024-02-16T11:08:44;12.20;99.90
10314;DHT22;5202;49.138;10.090;2024-02-16T11:11:24;12.30;99.90
10314;DHT22;5202;49.138;10.090;2024-02-16T11:13:54;12.40;99.90
10314;DHT22;5202;49.138;10.090;2024-02-16T11:16:23;12.50;99.90
10314;DHT22;5202;49.138;10.090;2024-02-16T11:18:56;12.60;99.90
10314;DHT22;5202;49.138;10.090;2024-02-16T11:21:25;12.70;99.90
10314;DHT22;5202;49.138;10.090;2024-02-16T11:24:06;12.80;99.90
10314;DHT22;5202;49.138;10.090;2024-02-16T11:26:44;12.90;99.90
10314;DHT22;5202;49.138;10.090;2024-02-16T11:29:13;12.90;99.90
10314;DHT22;5202;49.138;10.090;2024-02-16T11:31:43;13.10;99.90
10314;DHT22;5202;49.138;10.090;2024-02-16T11:34:21;13.00;99.90
10314;DHT22;5202;49.138;10.090;2024-02-16T11:36:52;13.10;99.90
10314;DHT22;5202;49.138;10.090;2024-02-16T11:39:24;13.20;99.90
10314;DHT22;5202;49.138;10.090;2024-02-16T11:42:02;13.30;99.90
10314;DHT22;5202;49.138;10.090;2024-02-16T11:44:33;13.40;99.90
10314;DHT22;5202;49.138;10.090;2024-02-16T11:47:03;13.40;99.90
10314;DHT22;5202;49.138;10.090;2024-02-16T11:49:33;13.40;99.90
10314;DHT22;5202;49.138;10.090;2024-02-16T11:52:04;13.50;99.90
10314;DHT22;5202;49.138;10.090;2024-02-16T11:54:32;13.50;99.90
10314;DHT22;5202;49.138;10.090;2024-02-16T11:57:03;13.50;99.90
10314;DHT22;5202;49.138;10.090;2024-02-16T11:59:32;13.50;99.90
10314;DHT22;5202;49.138;10.090;2024-02-16T12:02:01;13.60;99.90
10314;DHT22;5202;49.138;10.090;2024-02-16T12:04:30;13.60;99.90
10314;DHT22;5202;49.138;10.090;2024-02-16T12:07:03;13.70;99.90
10314;DHT22;5202;49.138;10.090;2024-02-16T12:09:32;13.80;99.90
10314;DHT22;5202;49.138;10.090;2024-02-16T12:12:05;13.80;99.90
10314;DHT22;5202;49.138;10.090;2024-02-16T12:14:35;13.90;99.90
10314;DHT22;5202;49.138;10.090;2024-02-16T12:17:07;13.90;99.90
10314;DHT22;5202;49.138;10.090;2024-02-16T12:19:35;14.00;99.90
10314;DHT22;5202;49.138;10.090;2024-02-16T12:22:04;14.10;99.40
10314;DHT22;5202;49.138;10.090;2024-02-16T12:24:33;14.10;98.70
10314;DHT22;5202;49.138;10.090;2024-02-16T12:27:01;14.10;98.80
10314;DHT22;5202;49.138;10.090;2024-02-16T12:29:32;14.20;98.80
10314;DHT22;5202;49.138;10.090;2024-02-16T12:32:00;14.30;97.00
10314;DHT22;5202;49.138;10.090;2024-02-16T12:34:29;14.40;96.30
10314;DHT22;5202;49.138;10.090;2024-02-16T12:36:58;14.40;95.30
10314;DHT22;5202;49.138;10.090;2024-02-16T12:39:26;14.50;95.80
10314;DHT22;5202;49.138;10.090;2024-02-16T12:41:55;14.60;95.60
10314;DHT22;5202;49.138;10.090;2024-02-16T12:44:26;14.70;95.30
10314;DHT22;5202;49.138;10.090;2024-02-16T12:46:54;14.70;95.10
10314;DHT22;5202;49.138;10.090;2024-02-16T12:49:23;14.70;95.30
10314;DHT22;5202;49.138;10.090;2024-02-16T12:51:53;14.80;95.80
10314;DHT22;5202;49.138;10.090;2024-02-16T12:54:21;14.90;95.70
10314;DHT22;5202;49.138;10.090;2024-02-16T12:56:50;15.00;95.60
10314;DHT22;5202;49.138;10.090;2024-02-16T12:59:23;15.10;95.50
10314;DHT22;5202;49.138;10.090;2024-02-16T13:01:55;15.20;95.50
10314;DHT22;5202;49.138;10.090;2024-02-16T13:04:24;15.20;95.70
10314;DHT22;5202;49.138;10.090;2024-02-16T13:07:08;15.20;95.50
10314;DHT22;5202;49.138;10.090;2024-02-16T13:09:38;15.20;95.50
10314;DHT22;5202;49.138;10.090;2024-02-16T13:12:07;15.30;96.10
10314;DHT22;5202;49.138;10.090;2024-02-16T13:14:35;15.50;96.10
10314;DHT22;5202;49.138;10.090;2024-02-16T13:17:06;15.80;95.50
10314;DHT22;5202;49.138;10.090;2024-02-16T13:19:35;15.90;95.20
10314;DHT22;5202;49.138;10.090;2024-02-16T13:22:04;16.10;95.50
10314;DHT22;5202;49.138;10.090;2024-02-16T13:24:33;16.30;95.00
10314;DHT22;5202;49.138;10.090;2024-02-16T13:27:02;16.30;94.90
10314;DHT22;5202;49.138;10.090;2024-02-16T13:29:32;16.10;95.10
10314;DHT22;5202;49.138;10.090;2024-02-16T13:32:05;16.00;95.10
10314;DHT22;5202;49.138;10.090;2024-02-16T13:34:34;15.90;94.90
10314;DHT22;5202;49.138;10.090;2024-02-16T13:37:02;15.80;95.40
10314;DHT22;5202;49.138;10.090;2024-02-16T13:39:31;15.70;95.10
10314;DHT22;5202;49.138;10.090;2024-02-16T13:42:00;15.60;95.70
10314;DHT22;5202;49.138;10.090;2024-02-16T13:44:28;15.50;96.40
10314;DHT22;5202;49.138;10.090;2024-02-16T13:46:57;15.50;96.60
10314;DHT22;5202;49.138;10.090;2024-02-16T13:49:26;15.40;96.60
10314;DHT22;5202;49.138;10.090;2024-02-16T13:51:55;15.40;96.70
10314;DHT22;5202;49.138;10.090;2024-02-16T13:54:26;15.40;96.90
10314;DHT22;5202;49.138;10.090;2024-02-16T13:56:55;15.30;97.10
10314;DHT22;5202;49.138;10.090;2024-02-16T13:59:23;15.30;97.40
10314;DHT22;5202;49.138;10.090;2024-02-16T14:01:53;15.30;97.10
10314;DHT22;5202;49.138;10.090;2024-02-16T14:04:21;15.20;97.30
10314;DHT22;5202;49.138;10.090;2024-02-16T14:06:52;15.20;97.60
10314;DHT22;5202;49.138;10.090;2024-02-16T14:09:21;15.20;97.40
10314;DHT22;5202;49.138;10.090;2024-02-16T14:11:59;15.10;97.40
10314;DHT22;5202;49.138;10.090;2024-02-16T14:14:28;15.00;97.60
10314;DHT22;5202;49.138;10.090;2024-02-16T14:17:04;15.00;97.80
10314;DHT22;5202;49.138;10.090;2024-02-16T14:19:33;14.90;98.20
10314;DHT22;5202;49.138;10.090;2024-02-16T14:22:06;14.90;97.70
10314;DHT22;5202;49.138;10.090;2024-02-16T14:24:35;14.90;97.70
10314;DHT22;5202;49.138;10.090;2024-02-16T14:27:04;14.90;97.60
10314;DHT22;5202;49.138;10.090;2024-02-16T14:29:33;14.80;97.70
10314;DHT22;5202;49.138;10.090;2024-02-16T14:32:01;14.80;97.70
10314;DHT22;5202;49.138;10.090;2024-02-16T14:34:30;14.80;98.00
10314;DHT22;5202;49.138;10.090;2024-02-16T14:36:59;14.80;98.20
10314;DHT22;5202;49.138;10.090;2024-02-16T14:39:29;14.80;98.50
10314;DHT22;5202;49.138;10.090;2024-02-16T14:41:57;14.80;98.30
10314;DHT22;5202;49.138;10.090;2024-02-16T14:44:26;14.70;98.50
10314;DHT22;5202;49.138;10.090;2024-02-16T14:46:54;14.70;98.40
10314;DHT22;5202;49.138;10.090;2024-02-16T14:49:24;14.60;98.50
10314;DHT22;5202;49.138;10.090;2024-02-16T14:51:53;14.60;98.70
10314;DHT22;5202;49.138;10.090;2024-02-16T14:54:22;14.50;99.00
10314;DHT22;5202;49.138;10.090;2024-02-16T14:56:54;14.50;98.80
10314;DHT22;5202;49.138;10.090;2024-02-16T14:59:22;14.50;99.00
10314;DHT22;5202;49.138;10.090;2024-02-16T15:01:51;14.40;99.40
10314;DHT22;5202;49.138;10.090;2024-02-16T15:04:20;14.40;99.40
10314;DHT22;5202;49.138;10.090;2024-02-16T15:06:48;14.30;99.30
10314;DHT22;5202;49.138;10.090;2024-02-16T15:09:16;14.30;99.40
10314;DHT22;5202;49.138;10.090;2024-02-16T15:11:45;14.30;99.50
10314;DHT22;5202;49.138;10.090;2024-02-16T15:14:14;14.20;99.70
10314;DHT22;5202;49.138;10.090;2024-02-16T15:16:46;14.20;99.70
10314;DHT22;5202;49.138;10.090;2024-02-16T15:19:14;14.20;99.90
10314;DHT22;5202;49.138;10.090;2024-02-16T15:21:43;14.20;99.90
10314;DHT22;5202;49.138;10.090;2024-02-16T15:24:12;14.10;99.90
10314;DHT22;5202;49.138;10.090;2024-02-16T15:26:40;14.10;99.90
10314;DHT22;5202;49.138;10.090;2024-02-16T15:29:08;14.10;99.90
10314;DHT22;5202;49.138;10.090;2024-02-16T15:31:37;14.10;99.90
10314;DHT22;5202;49.138;10.090;2024-02-16T15:34:06;14.00;99.90
10314;DHT22;5202;49.138;10.090;2024-02-16T15:36:35;14.00;99.90
10314;DHT22;5202;49.138;10.090;2024-02-16T15:39:04;14.00;99.90
10314;DHT22;5202;49.138;10.090;2024-02-16T15:41:34;13.90;99.90
10314;DHT22;5202;49.138;10.090;2024-02-16T15:44:03;13.90;99.90
10314;DHT22;5202;49.138;10.090;2024-02-16T15:46:32;13.90;99.90
10314;DHT22;5202;49.138;10.090;2024-02-16T15:49:02;13.90;99.90
10314;DHT22;5202;49.138;10.090;2024-02-16T15:51:31;13.90;99.90
10314;DHT22;5202;49.138;10.090;2024-02-16T15:53:59;13.90;99.90
10314;DHT22;5202;49.138;10.090;2024-02-16T15:56:29;13.90;99.90